Skip Navigation LinksHome page > Weather > Current weather Skip Navigation Links

Current Weather

Ronald Reagan Washington National, Washington

For information only: do not use for flight planning or navigation.
Latest weather
Observation time Wednesday, January 28, 2015 4:52 PM EST
Local time Wednesday, January 28, 2015 5:10 PM EST
Flight conditions Visual Meteorological Conditions
Winds
Wind direction Northwest (320°)
Wind speed 14 mph
Wind gusting to 21 mph
Visibility 10 mi.
Sky condition
Ceiling unlimited
Cloud layer few clouds 25,000 ft.
Temperature 37°F
Dewpoint 6°F
Altimeter 30.27 in.Hg
Derived measurements
Relative humidity 27%
Wind chill 28°F
Density altitude -1828 ft.
Sea-level pressure 30.27 in.Hg
Remarks
Automated weather observing station with precipitation discriminator.
METAR KDCA 282152Z 32012G18KT 10SM FEW250 03/M14 A3027 RMK AO2 SLP250 T00281144

Settings

Location code

InnerDrive.Weather 4.0.5505.0 Release CLR 4.0.30319.34014
Copyright ©2015 Inner Drive Technology. All rights reserved. Portions Copyright ©1986-2015 David Braverman.

Find weather

Site navigation


Skip Navigation Links

Place info

Page info

PayPal - The safer, easier way to pay online!

Return home.

Copyright ©2015 Inner Drive Technology. Purveyors of fine, hand-crafted computer software. Page printed 2015-01-28T22:10:06 UTC.